Cotes De Bretagne — FW3973 — position and weather

sailwx.info

Track history (hours):
 
Tides and Currents Weather Stations Pressure Air Temp Water Temp Dewpoint Dewpoint Depression Visibility Wind Speed Wind Dir Waves Ship Positions

Cotes De Bretagne

Last reported at 2017-Sep-21 18:53 UTC. Time now 2017-Sep-21 19:39 UTC.
Position N 47°44' W 004°12'.

Length 75 m; draft 4.2 m.

Type: Dredging. MMSI: 227003850.

Date/timePositionNaut miles runAvg speedWind from/ knotsBaromVisibWave heightAir tempDewpointWater temp
2017-Sep-21 18:53N 47°44' W 004°12'9 9.3
2017-Sep-21 17:53N 47°52' W 004°07'6 6.6
2017-Sep-21 16:58N 47°58' W 004°06'3 1.5
2017-Sep-21 14:53N 47°56' W 004°08'5 5.4
2017-Sep-21 13:58N 47°51' W 004°06'12 5.6
2017-Sep-21 11:47N 47°44' W 003°51'3 6.5
2017-Sep-21 11:22N 47°43' W 003°47'2 6.0
2017-Sep-21 11:00N 47°41' W 003°45'4 6.7
2017-Sep-21 10:29N 47°39' W 003°41'3 6.9
2017-Sep-21 10:00N 47°37' W 003°37'3 6.9
2017-Sep-21 09:30N 47°35' W 003°34'3 6.9
2017-Sep-21 09:00N 47°32' W 003°30'4 7.1
2017-Sep-21 08:30N 47°30' W 003°26'4 7.9
2017-Sep-21 08:00N 47°28' W 003°21'4 7.5
2017-Sep-21 07:30N 47°26' W 003°16'4 8.3
2017-Sep-21 07:00N 47°24' W 003°11'4 8.6
2017-Sep-21 06:30N 47°22' W 003°06'4 8.2
2017-Sep-21 06:00N 47°19' W 003°01'5 8.1
2017-Sep-21 05:26N 47°16' W 002°56'4 8.5
2017-Sep-21 04:59N 47°13' W 002°52'4 8.5
2017-Sep-21 04:30N 47°10' W 002°47'4 8.4
2017-Sep-21 03:59N 47°07' W 002°43'4 8.1
2017-Sep-21 03:30N 47°04' W 002°40'4 8.3
2017-Sep-21 03:00N 47°01' W 002°36'4 8.6
2017-Sep-21 02:30N 46°58' W 002°32'4 8.6
2017-Sep-21 01:59N 46°54' W 002°28'4 8.6
2017-Sep-21 01:30N 46°51' W 002°24'4 8.5
2017-Sep-21 00:59N 46°47' W 002°20'4 8.3
2017-Sep-21 00:29N 46°45' W 002°15'5 9.3
2017-Sep-20 23:59N 46°41' W 002°11'4 9.4
2017-Sep-20 23:30N 46°38' W 002°08'5 9.3
2017-Sep-20 23:00N 46°34' W 002°04'5 9.4
2017-Sep-20 22:30N 46°30' W 002°00'5 9.3
2017-Sep-20 22:00N 46°26' W 001°56'5 9.3
2017-Sep-20 21:30N 46°22' W 001°53'5 9.3
2017-Sep-20 21:00N 46°18' W 001°49'5 9.0
2017-Sep-20 20:30N 46°15' W 001°45'4 8.9
2017-Sep-20 19:59N 46°11' W 001°41'4 8.6
2017-Sep-20 19:30N 46°07' W 001°39'3 5.3
2017-Sep-20 18:56N 46°05' W 001°36'0 0.1
2017-Sep-20 18:24N 46°05' W 001°36'0 0.3
2017-Sep-20 17:13N 46°05' W 001°36'8 9.9
2017-Sep-20 16:26N 46°12' W 001°41'510.6
2017-Sep-20 16:00N 46°16' W 001°44'510.5
2017-Sep-20 15:30N 46°21' W 001°45'510.4
2017-Sep-20 15:00N 46°26' W 001°46'4 3.8
2017-Sep-20 14:00N 46°30' W 001°48'0 0.0
2017-Sep-20 13:30N 46°30' W 001°48'0 0.0
2017-Sep-20 13:00N 46°30' W 001°48'2 4.4
2017-Sep-20 12:30N 46°28' W 001°47'4 8.7
2017-Sep-20 12:00N 46°23' W 001°46'4 9.0
2017-Sep-20 11:30N 46°19' W 001°45'5 9.2
2017-Sep-20 11:00N 46°15' W 001°43'5 9.1
2017-Sep-20 10:27N 46°10' W 001°39'1 0.4
2017-Sep-20 07:16N 46°09' W 001°40'310.1
2017-Sep-20 06:56N 46°12' W 001°43'510.1
2017-Sep-20 06:24N 46°16' W 001°47'410.0
2017-Sep-20 06:00N 46°20' W 001°51'510.2
2017-Sep-20 05:30N 46°24' W 001°55'510.0
2017-Sep-20 04:59N 46°28' W 001°58'510.2
2017-Sep-20 04:30N 46°33' W 002°02'510.3
2017-Sep-20 04:00N 46°37' W 002°07'810.4
2017-Sep-20 03:17N 46°43' W 002°13'310.9
2017-Sep-20 02:59N 46°45' W 002°16'510.5
2017-Sep-20 02:29N 46°49' W 002°21'710.6
2017-Sep-20 01:52N 46°54' W 002°28'510.2
2017-Sep-20 01:26N 46°57' W 002°32'4 9.8
2017-Sep-20 01:00N 47°01' W 002°36'5 9.7
2017-Sep-20 00:30N 47°04' W 002°40'5 9.8
2017-Sep-20 00:00N 47°08' W 002°45'5 9.9
2017-Sep-19 23:30N 47°12' W 002°50'510.0
2017-Sep-19 23:00N 47°15' W 002°55'5 9.7
2017-Sep-19 22:30N 47°19' W 002°60'5 9.5
2017-Sep-19 22:00N 47°22' W 003°06'5 9.7
2017-Sep-19 21:30N 47°24' W 003°12'5 9.7
2017-Sep-19 21:00N 47°27' W 003°18'5 9.7
2017-Sep-19 20:30N 47°29' W 003°24'510.1
2017-Sep-19 20:00N 47°33' W 003°29'510.1
2017-Sep-19 19:30N 47°36' W 003°35'510.2
2017-Sep-19 19:00N 47°39' W 003°41'510.1
2017-Sep-19 18:30N 47°42' W 003°47'510.2
2017-Sep-19 18:00N 47°45' W 003°54'510.2
2017-Sep-19 17:28N 47°47' W 004°01'510.2
2017-Sep-19 16:58N 47°51' W 004°06'7 6.8
2017-Sep-19 15:53N 47°58' W 004°06'1 0.8
2017-Sep-19 13:58N 47°57' W 004°07'6 5.1
2017-Sep-19 12:43N 47°51' W 004°06'0 0.1
2017-Sep-19 10:59N 47°51' W 004°06'0 0.0
2017-Sep-19 03:58N 47°50' W 004°06'0 0.0
2017-Sep-19 02:58N 47°50' W 004°06'1 0.4
2017-Sep-19 00:59N 47°50' W 004°06'8 8.5
2017-Sep-19 00:01N 47°46' W 003°55'1 9.0
2017-Sep-18 23:57N 47°45' W 003°54'4 9.2
2017-Sep-18 23:28N 47°43' W 003°48'4 9.1
2017-Sep-18 23:00N 47°41' W 003°44'5 9.2
2017-Sep-18 22:30N 47°38' W 003°38'4 9.0
2017-Sep-18 22:00N 47°35' W 003°33'4 9.0
2017-Sep-18 21:30N 47°32' W 003°28'5 9.2
2017-Sep-18 21:00N 47°29' W 003°23'5 9.1
2017-Sep-18 20:30N 47°27' W 003°17'5 9.1
2017-Sep-18 20:00N 47°24' W 003°11'5 9.5
2017-Sep-18 19:30N 47°22' W 003°06'4 8.7
2017-Sep-18 19:00N 47°19' W 003°01'4 8.5
2017-Sep-18 18:30N 47°15' W 002°57'4 8.6
2017-Sep-18 18:00N 47°12' W 002°53'4 8.3
2017-Sep-18 17:30N 47°09' W 002°49'4 8.2
2017-Sep-18 17:00N 47°06' W 002°45'37 8.2
2017-Sep-18 12:32N 46°39' W 002°08'0 8.6
2017-Sep-18 12:29N 46°38' W 002°08'4 8.7
2017-Sep-18 12:01N 46°35' W 002°05'5 8.8
2017-Sep-18 11:29N 46°31' W 002°01'4 8.7
2017-Sep-18 11:00N 46°28' W 001°58'4 8.6
2017-Sep-18 10:31N 46°24' W 001°54'4 8.7
2017-Sep-18 10:00N 46°21' W 001°51'5 9.0
2017-Sep-18 09:26N 46°16' W 001°47'4 8.7
2017-Sep-18 08:59N 46°13' W 001°44'10 3.7
2017-Sep-18 06:24N 46°05' W 001°35'0 0.7
2017-Sep-18 05:54N 46°05' W 001°36'4 7.1
2017-Sep-18 05:16N 46°08' W 001°40'3 9.2
2017-Sep-18 04:54N 46°11' W 001°42'510.2
2017-Sep-18 04:28N 46°15' W 001°45'510.1
2017-Sep-18 04:00N 46°20' W 001°47'510.3
2017-Sep-18 03:30N 46°25' W 001°47'5 9.3
2017-Sep-18 03:00N 46°29' W 001°48'1 1.0
2017-Sep-18 02:30N 46°30' W 001°48'0 0.0
2017-Sep-18 02:00N 46°30' W 001°48'0 0.0
2017-Sep-18 01:30N 46°30' W 001°48'0 0.0
2017-Sep-18 01:01N 46°30' W 001°48'1 1.2
2017-Sep-18 00:30N 46°29' W 001°48'2 4.6
2017-Sep-18 00:01N 46°27' W 001°47'2 4.7
2017-Sep-17 23:30N 46°25' W 001°46'2 4.7
2017-Sep-17 23:00N 46°23' W 001°46'2 4.8
2017-Sep-17 22:31N 46°20' W 001°45'3 5.5
2017-Sep-17 22:00N 46°18' W 001°44'3 5.7
2017-Sep-17 21:30N 46°15' W 001°43'3 5.5
2017-Sep-17 21:00N 46°12' W 001°41'0 0.1
2017-Sep-17 16:03N 46°12' W 001°41'010.3
2017-Sep-17 16:00N 46°12' W 001°41'610.2
2017-Sep-17 15:27N 46°17' W 001°46'510.3
2017-Sep-17 15:00N 46°21' W 001°47'510.2
2017-Sep-17 14:30N 46°27' W 001°47'3 6.8
2017-Sep-17 14:01N 46°30' W 001°48'0 0.2
2017-Sep-17 13:30N 46°30' W 001°48'0 0.0
2017-Sep-17 13:00N 46°30' W 001°48'0 0.0
2017-Sep-17 12:30N 46°30' W 001°48'0 0.0
2017-Sep-17 12:01N 46°30' W 001°48'2 4.2
2017-Sep-17 11:30N 46°28' W 001°47'3 6.7
2017-Sep-17 11:00N 46°25' W 001°46'3 6.5
2017-Sep-17 10:30N 46°22' W 001°45'3 6.3
2017-Sep-17 10:00N 46°18' W 001°44'3 6.9
2017-Sep-17 09:30N 46°15' W 001°43'4 7.3
2017-Sep-17 08:59N 46°11' W 001°41'1 0.3
2017-Sep-17 04:46N 46°11' W 001°40'310.1
2017-Sep-17 04:30N 46°13' W 001°42'510.1
2017-Sep-17 04:00N 46°17' W 001°46'510.2
2017-Sep-17 03:30N 46°22' W 001°46'510.1
2017-Sep-17 03:00N 46°27' W 001°46'3 5.5
2017-Sep-17 02:30N 46°30' W 001°48'0 0.0
2017-Sep-17 02:00N 46°30' W 001°48'0 0.0
2017-Sep-17 01:30N 46°30' W 001°48'0 0.0
2017-Sep-17 01:00N 46°30' W 001°48'1 1.2
2017-Sep-17 00:31N 46°29' W 001°48'4 7.3
2017-Sep-17 00:00N 46°26' W 001°46'4 7.7
2017-Sep-16 23:30N 46°22' W 001°45'4 7.9
2017-Sep-16 23:00N 46°18' W 001°44'4 8.1
2017-Sep-16 22:30N 46°14' W 001°42'6 1.3
2017-Sep-16 18:13N 46°09' W 001°38'2 9.8
2017-Sep-16 17:58N 46°11' W 001°41'510.1
2017-Sep-16 17:27N 46°15' W 001°45'410.1
2017-Sep-16 17:01N 46°19' W 001°49'510.0
2017-Sep-16 16:30N 46°23' W 001°53'4 8.9
2017-Sep-16 16:00N 46°27' W 001°57'5 9.7
2017-Sep-16 15:30N 46°31' W 002°00'5 9.6
2017-Sep-16 15:00N 46°35' W 002°05'510.2
2017-Sep-16 14:29N 46°39' W 002°09'5410.3
2017-Sep-16 09:12N 47°12' W 003°12'210.2
2017-Sep-16 08:59N 47°14' W 003°15'510.6
2017-Sep-16 08:29N 47°17' W 003°21'510.3
2017-Sep-16 08:00N 47°19' W 003°27'510.4
2017-Sep-16 07:31N 47°22' W 003°34'510.4
2017-Sep-16 07:00N 47°24' W 003°42'510.1
2017-Sep-16 06:30N 47°25' W 003°49'510.4
2017-Sep-16 05:58N 47°29' W 003°55'1210.1
2017-Sep-16 04:48N 47°36' W 004°09'810.1
2017-Sep-16 03:58N 47°42' W 004°18'1210.3
2017-Sep-16 02:48N 47°50' W 004°31'610.4
2017-Sep-16 02:12N 47°55' W 004°37'310.5
2017-Sep-16 01:53N 47°57' W 004°40'411.2
2017-Sep-16 01:30N 48°00' W 004°44'510.1
2017-Sep-16 01:00N 48°05' W 004°45'510.2
2017-Sep-16 00:31N 48°11' W 004°46'5 9.9
2017-Sep-16 00:01N 48°15' W 004°46'5 9.7
2017-Sep-15 23:31N 48°20' W 004°48'4 8.4
2017-Sep-15 23:00N 48°24' W 004°49'4 8.5
2017-Sep-15 22:30N 48°28' W 004°50'4 8.0
2017-Sep-15 22:00N 48°32' W 004°50'4 7.8
2017-Sep-15 21:30N 48°36' W 004°48'4 7.6
2017-Sep-15 21:00N 48°38' W 004°43'4 8.3
2017-Sep-15 20:30N 48°40' W 004°38'4 8.5
2017-Sep-15 20:00N 48°42' W 004°32'5 8.8
2017-Sep-15 19:29N 48°43' W 004°25'  
Track history (hours):
 
Tides and Currents Weather Stations Pressure Air Temp Water Temp Dewpoint Dewpoint Depression Visibility Wind Speed Wind Dir Waves Ship Positions

Cotes De Bretagne

Last reported at 2017-Sep-21 18:53 UTC. Time now 2017-Sep-21 19:39 UTC.
Position N 47°44' W 004°12'.

Length 75 m; draft 4.2 m.

Type: Dredging. MMSI: 227003850.

Date/timePositionNaut miles runAvg speedWind from/ knotsBaromVisibWave heightAir tempDewpointWater temp
2017-Sep-21 18:53N 47°44' W 004°12'9 9.3
2017-Sep-21 17:53N 47°52' W 004°07'6 6.6
2017-Sep-21 16:58N 47°58' W 004°06'3 1.5
2017-Sep-21 14:53N 47°56' W 004°08'5 5.4
2017-Sep-21 13:58N 47°51' W 004°06'12 5.6
2017-Sep-21 11:47N 47°44' W 003°51'3 6.5
2017-Sep-21 11:22N 47°43' W 003°47'2 6.0
2017-Sep-21 11:00N 47°41' W 003°45'4 6.7
2017-Sep-21 10:29N 47°39' W 003°41'3 6.9
2017-Sep-21 10:00N 47°37' W 003°37'3 6.9
2017-Sep-21 09:30N 47°35' W 003°34'3 6.9
2017-Sep-21 09:00N 47°32' W 003°30'4 7.1
2017-Sep-21 08:30N 47°30' W 003°26'4 7.9
2017-Sep-21 08:00N 47°28' W 003°21'4 7.5
2017-Sep-21 07:30N 47°26' W 003°16'4 8.3
2017-Sep-21 07:00N 47°24' W 003°11'4 8.6
2017-Sep-21 06:30N 47°22' W 003°06'4 8.2
2017-Sep-21 06:00N 47°19' W 003°01'5 8.1
2017-Sep-21 05:26N 47°16' W 002°56'4 8.5
2017-Sep-21 04:59N 47°13' W 002°52'4 8.5
2017-Sep-21 04:30N 47°10' W 002°47'4 8.4
2017-Sep-21 03:59N 47°07' W 002°43'4 8.1
2017-Sep-21 03:30N 47°04' W 002°40'4 8.3
2017-Sep-21 03:00N 47°01' W 002°36'4 8.6
2017-Sep-21 02:30N 46°58' W 002°32'4 8.6
2017-Sep-21 01:59N 46°54' W 002°28'4 8.6
2017-Sep-21 01:30N 46°51' W 002°24'4 8.5
2017-Sep-21 00:59N 46°47' W 002°20'4 8.3
2017-Sep-21 00:29N 46°45' W 002°15'5 9.3
2017-Sep-20 23:59N 46°41' W 002°11'4 9.4
2017-Sep-20 23:30N 46°38' W 002°08'5 9.3
2017-Sep-20 23:00N 46°34' W 002°04'5 9.4
2017-Sep-20 22:30N 46°30' W 002°00'5 9.3
2017-Sep-20 22:00N 46°26' W 001°56'5 9.3
2017-Sep-20 21:30N 46°22' W 001°53'5 9.3
2017-Sep-20 21:00N 46°18' W 001°49'5 9.0
2017-Sep-20 20:30N 46°15' W 001°45'4 8.9
2017-Sep-20 19:59N 46°11' W 001°41'4 8.6
2017-Sep-20 19:30N 46°07' W 001°39'3 5.3
2017-Sep-20 18:56N 46°05' W 001°36'0 0.1
2017-Sep-20 18:24N 46°05' W 001°36'0 0.3
2017-Sep-20 17:13N 46°05' W 001°36'8 9.9
2017-Sep-20 16:26N 46°12' W 001°41'510.6
2017-Sep-20 16:00N 46°16' W 001°44'510.5
2017-Sep-20 15:30N 46°21' W 001°45'510.4
2017-Sep-20 15:00N 46°26' W 001°46'4 3.8
2017-Sep-20 14:00N 46°30' W 001°48'0 0.0
2017-Sep-20 13:30N 46°30' W 001°48'0 0.0
2017-Sep-20 13:00N 46°30' W 001°48'2 4.4
2017-Sep-20 12:30N 46°28' W 001°47'4 8.7
2017-Sep-20 12:00N 46°23' W 001°46'4 9.0
2017-Sep-20 11:30N 46°19' W 001°45'5 9.2
2017-Sep-20 11:00N 46°15' W 001°43'5 9.1
2017-Sep-20 10:27N 46°10' W 001°39'1 0.4
2017-Sep-20 07:16N 46°09' W 001°40'310.1
2017-Sep-20 06:56N 46°12' W 001°43'510.1
2017-Sep-20 06:24N 46°16' W 001°47'410.0
2017-Sep-20 06:00N 46°20' W 001°51'510.2
2017-Sep-20 05:30N 46°24' W 001°55'510.0
2017-Sep-20 04:59N 46°28' W 001°58'510.2
2017-Sep-20 04:30N 46°33' W 002°02'510.3
2017-Sep-20 04:00N 46°37' W 002°07'810.4
2017-Sep-20 03:17N 46°43' W 002°13'310.9
2017-Sep-20 02:59N 46°45' W 002°16'510.5
2017-Sep-20 02:29N 46°49' W 002°21'710.6
2017-Sep-20 01:52N 46°54' W 002°28'510.2
2017-Sep-20 01:26N 46°57' W 002°32'4 9.8
2017-Sep-20 01:00N 47°01' W 002°36'5 9.7
2017-Sep-20 00:30N 47°04' W 002°40'5 9.8
2017-Sep-20 00:00N 47°08' W 002°45'5 9.9
2017-Sep-19 23:30N 47°12' W 002°50'510.0
2017-Sep-19 23:00N 47°15' W 002°55'5 9.7
2017-Sep-19 22:30N 47°19' W 002°60'5 9.5
2017-Sep-19 22:00N 47°22' W 003°06'5 9.7
2017-Sep-19 21:30N 47°24' W 003°12'5 9.7
2017-Sep-19 21:00N 47°27' W 003°18'5 9.7
2017-Sep-19 20:30N 47°29' W 003°24'510.1
2017-Sep-19 20:00N 47°33' W 003°29'510.1
2017-Sep-19 19:30N 47°36' W 003°35'510.2
2017-Sep-19 19:00N 47°39' W 003°41'510.1
2017-Sep-19 18:30N 47°42' W 003°47'510.2
2017-Sep-19 18:00N 47°45' W 003°54'510.2
2017-Sep-19 17:28N 47°47' W 004°01'510.2
2017-Sep-19 16:58N 47°51' W 004°06'7 6.8
2017-Sep-19 15:53N 47°58' W 004°06'1 0.8
2017-Sep-19 13:58N 47°57' W 004°07'6 5.1
2017-Sep-19 12:43N 47°51' W 004°06'0 0.1
2017-Sep-19 10:59N 47°51' W 004°06'0 0.0
2017-Sep-19 03:58N 47°50' W 004°06'0 0.0
2017-Sep-19 02:58N 47°50' W 004°06'1 0.4
2017-Sep-19 00:59N 47°50' W 004°06'8 8.5
2017-Sep-19 00:01N 47°46' W 003°55'1 9.0
2017-Sep-18 23:57N 47°45' W 003°54'4 9.2
2017-Sep-18 23:28N 47°43' W 003°48'4 9.1
2017-Sep-18 23:00N 47°41' W 003°44'5 9.2
2017-Sep-18 22:30N 47°38' W 003°38'4 9.0
2017-Sep-18 22:00N 47°35' W 003°33'4 9.0
2017-Sep-18 21:30N 47°32' W 003°28'5 9.2
2017-Sep-18 21:00N 47°29' W 003°23'5 9.1
2017-Sep-18 20:30N 47°27' W 003°17'5 9.1
2017-Sep-18 20:00N 47°24' W 003°11'5 9.5
2017-Sep-18 19:30N 47°22' W 003°06'4 8.7
2017-Sep-18 19:00N 47°19' W 003°01'4 8.5
2017-Sep-18 18:30N 47°15' W 002°57'4 8.6
2017-Sep-18 18:00N 47°12' W 002°53'4 8.3
2017-Sep-18 17:30N 47°09' W 002°49'4 8.2
2017-Sep-18 17:00N 47°06' W 002°45'37 8.2
2017-Sep-18 12:32N 46°39' W 002°08'0 8.6
2017-Sep-18 12:29N 46°38' W 002°08'4 8.7
2017-Sep-18 12:01N 46°35' W 002°05'5 8.8
2017-Sep-18 11:29N 46°31' W 002°01'4 8.7
2017-Sep-18 11:00N 46°28' W 001°58'4 8.6
2017-Sep-18 10:31N 46°24' W 001°54'4 8.7
2017-Sep-18 10:00N 46°21' W 001°51'5 9.0
2017-Sep-18 09:26N 46°16' W 001°47'4 8.7
2017-Sep-18 08:59N 46°13' W 001°44'10 3.7
2017-Sep-18 06:24N 46°05' W 001°35'0 0.7
2017-Sep-18 05:54N 46°05' W 001°36'4 7.1
2017-Sep-18 05:16N 46°08' W 001°40'3 9.2
2017-Sep-18 04:54N 46°11' W 001°42'510.2
2017-Sep-18 04:28N 46°15' W 001°45'510.1
2017-Sep-18 04:00N 46°20' W 001°47'510.3
2017-Sep-18 03:30N 46°25' W 001°47'5 9.3
2017-Sep-18 03:00N 46°29' W 001°48'1 1.0
2017-Sep-18 02:30N 46°30' W 001°48'0 0.0
2017-Sep-18 02:00N 46°30' W 001°48'0 0.0
2017-Sep-18 01:30N 46°30' W 001°48'0 0.0
2017-Sep-18 01:01N 46°30' W 001°48'1 1.2
2017-Sep-18 00:30N 46°29' W 001°48'2 4.6
2017-Sep-18 00:01N 46°27' W 001°47'2 4.7
2017-Sep-17 23:30N 46°25' W 001°46'2 4.7
2017-Sep-17 23:00N 46°23' W 001°46'2 4.8
2017-Sep-17 22:31N 46°20' W 001°45'3 5.5
2017-Sep-17 22:00N 46°18' W 001°44'3 5.7
2017-Sep-17 21:30N 46°15' W 001°43'3 5.5
2017-Sep-17 21:00N 46°12' W 001°41'0 0.1
2017-Sep-17 16:03N 46°12' W 001°41'010.3
2017-Sep-17 16:00N 46°12' W 001°41'610.2
2017-Sep-17 15:27N 46°17' W 001°46'510.3
2017-Sep-17 15:00N 46°21' W 001°47'510.2
2017-Sep-17 14:30N 46°27' W 001°47'3 6.8
2017-Sep-17 14:01N 46°30' W 001°48'0 0.2
2017-Sep-17 13:30N 46°30' W 001°48'0 0.0
2017-Sep-17 13:00N 46°30' W 001°48'0 0.0
2017-Sep-17 12:30N 46°30' W 001°48'0 0.0
2017-Sep-17 12:01N 46°30' W 001°48'2 4.2
2017-Sep-17 11:30N 46°28' W 001°47'3 6.7
2017-Sep-17 11:00N 46°25' W 001°46'3 6.5
2017-Sep-17 10:30N 46°22' W 001°45'3 6.3
2017-Sep-17 10:00N 46°18' W 001°44'3 6.9
2017-Sep-17 09:30N 46°15' W 001°43'4 7.3
2017-Sep-17 08:59N 46°11' W 001°41'1 0.3
2017-Sep-17 04:46N 46°11' W 001°40'310.1
2017-Sep-17 04:30N 46°13' W 001°42'510.1
2017-Sep-17 04:00N 46°17' W 001°46'510.2
2017-Sep-17 03:30N 46°22' W 001°46'510.1
2017-Sep-17 03:00N 46°27' W 001°46'3 5.5
2017-Sep-17 02:30N 46°30' W 001°48'0 0.0
2017-Sep-17 02:00N 46°30' W 001°48'0 0.0
2017-Sep-17 01:30N 46°30' W 001°48'0 0.0
2017-Sep-17 01:00N 46°30' W 001°48'1 1.2
2017-Sep-17 00:31N 46°29' W 001°48'4 7.3
2017-Sep-17 00:00N 46°26' W 001°46'4 7.7
2017-Sep-16 23:30N 46°22' W 001°45'4 7.9
2017-Sep-16 23:00N 46°18' W 001°44'4 8.1
2017-Sep-16 22:30N 46°14' W 001°42'6 1.3
2017-Sep-16 18:13N 46°09' W 001°38'2 9.8
2017-Sep-16 17:58N 46°11' W 001°41'510.1
2017-Sep-16 17:27N 46°15' W 001°45'410.1
2017-Sep-16 17:01N 46°19' W 001°49'510.0
2017-Sep-16 16:30N 46°23' W 001°53'4 8.9
2017-Sep-16 16:00N 46°27' W 001°57'5 9.7
2017-Sep-16 15:30N 46°31' W 002°00'5 9.6
2017-Sep-16 15:00N 46°35' W 002°05'510.2
2017-Sep-16 14:29N 46°39' W 002°09'5410.3
2017-Sep-16 09:12N 47°12' W 003°12'210.2
2017-Sep-16 08:59N 47°14' W 003°15'510.6
2017-Sep-16 08:29N 47°17' W 003°21'510.3
2017-Sep-16 08:00N 47°19' W 003°27'510.4
2017-Sep-16 07:31N 47°22' W 003°34'510.4
2017-Sep-16 07:00N 47°24' W 003°42'510.1
2017-Sep-16 06:30N 47°25' W 003°49'510.4
2017-Sep-16 05:58N 47°29' W 003°55'1210.1
2017-Sep-16 04:48N 47°36' W 004°09'810.1
2017-Sep-16 03:58N 47°42' W 004°18'1210.3
2017-Sep-16 02:48N 47°50' W 004°31'610.4
2017-Sep-16 02:12N 47°55' W 004°37'310.5
2017-Sep-16 01:53N 47°57' W 004°40'411.2
2017-Sep-16 01:30N 48°00' W 004°44'510.1
2017-Sep-16 01:00N 48°05' W 004°45'510.2
2017-Sep-16 00:31N 48°11' W 004°46'5 9.9
2017-Sep-16 00:01N 48°15' W 004°46'5 9.7
2017-Sep-15 23:31N 48°20' W 004°48'4 8.4
2017-Sep-15 23:00N 48°24' W 004°49'4 8.5
2017-Sep-15 22:30N 48°28' W 004°50'4 8.0
2017-Sep-15 22:00N 48°32' W 004°50'4 7.8
2017-Sep-15 21:30N 48°36' W 004°48'4 7.6
2017-Sep-15 21:00N 48°38' W 004°43'4 8.3
2017-Sep-15 20:30N 48°40' W 004°38'4 8.5
2017-Sep-15 20:00N 48°42' W 004°32'5 8.8
2017-Sep-15 19:29N 48°43' W 004°25'  

Dump ship's entire track history